createdAt,value
2022-11-29T00:01:40.895Z,101168.19
2022-11-29T00:04:13.565Z,101155.00
2022-11-29T00:06:46.239Z,101167.31
2022-11-29T00:09:19.126Z,101157.66
2022-11-29T00:12:10.534Z,101153.25
2022-11-29T00:14:43.320Z,101162.03
2022-11-29T00:17:16.186Z,101165.53
2022-11-29T00:19:48.810Z,101162.94
2022-11-29T00:22:23.597Z,101175.22
2022-11-29T00:24:56.299Z,101172.56
2022-11-29T00:27:29.100Z,101178.72
2022-11-29T00:30:02.011Z,101183.97
2022-11-29T00:32:35.714Z,101183.09
2022-11-29T00:35:09.953Z,101180.47
2022-11-29T00:37:42.745Z,101176.09
2022-11-29T00:40:15.423Z,101178.72
2022-11-29T00:42:48.208Z,101183.09
2022-11-29T00:45:20.915Z,101173.44
2022-11-29T00:47:53.528Z,101176.94
2022-11-29T00:50:26.288Z,101180.47
2022-11-29T00:52:58.911Z,101176.97
2022-11-29T00:55:31.547Z,101170.81
2022-11-29T00:58:04.382Z,101170.81
2022-11-29T01:00:37.227Z,101170.81
2022-11-29T01:03:10.192Z,101174.34
2022-11-29T01:05:43.554Z,101174.31
2022-11-29T01:08:17.388Z,101162.03
2022-11-29T01:10:49.992Z,101171.69
2022-11-29T01:13:22.648Z,101166.44
2022-11-29T01:15:57.514Z,101177.84
2022-11-29T01:18:30.942Z,101176.97
2022-11-29T01:21:09.518Z,101183.97
2022-11-29T01:23:44.589Z,101189.22
2022-11-29T01:26:24.752Z,101183.06
2022-11-29T01:28:59.399Z,101182.22
2022-11-29T01:31:37.921Z,101182.22
2022-11-29T01:34:11.232Z,101191.84
2022-11-29T01:36:43.966Z,101192.69
2022-11-29T01:39:16.620Z,101198.84
2022-11-29T01:41:49.356Z,101192.72
2022-11-29T01:44:21.943Z,101203.22
2022-11-29T01:46:56.143Z,101198.88
2022-11-29T01:49:37.978Z,101207.63
2022-11-29T01:52:23.540Z,101211.13
2022-11-29T01:55:01.782Z,101211.09
2022-11-29T01:57:39.230Z,101214.63
2022-11-29T02:00:17.373Z,101218.16
2022-11-29T02:03:00.306Z,101226.03
2022-11-29T02:05:33.708Z,101233.03
2022-11-29T02:08:09.803Z,101233.00
2022-11-29T02:11:15.472Z,101234.78
2022-11-29T02:14:11.794Z,101236.56
2022-11-29T02:17:01.706Z,101234.84
2022-11-29T02:20:24.847Z,101234.84
2022-11-29T02:23:26.359Z,101241.88
2022-11-29T02:26:50.759Z,101237.41
2022-11-29T02:30:08.760Z,101244.50
2022-11-29T02:32:41.184Z,101243.66
2022-11-29T02:35:52.626Z,101240.09
2022-11-29T02:38:54.012Z,101239.25
2022-11-29T02:41:40.651Z,101234.88
2022-11-29T02:44:27.810Z,101234.88
2022-11-29T02:47:13.753Z,101234.88
2022-11-29T02:50:19.864Z,101241.00
2022-11-29T02:53:17.472Z,101237.50
2022-11-29T02:56:14.259Z,101241.88
2022-11-29T02:59:23.784Z,101245.41
2022-11-29T03:02:37.897Z,101249.78
2022-11-29T03:05:25.227Z,101250.66
2022-11-29T03:08:25.233Z,101251.53
2022-11-29T03:11:39.828Z,101257.66
2022-11-29T03:14:26.927Z,101262.94
2022-11-29T03:17:51.481Z,101262.03
2022-11-29T03:20:38.436Z,101264.59
2022-11-29T03:23:33.785Z,101268.94
2022-11-29T03:26:14.590Z,101267.16
2022-11-29T03:29:27.064Z,101269.78
2022-11-29T03:32:13.767Z,101276.84
2022-11-29T03:35:18.362Z,101278.56
2022-11-29T03:38:36.251Z,101289.00
2022-11-29T03:41:43.268Z,101284.63
2022-11-29T03:44:30.148Z,101286.34
2022-11-29T03:47:16.319Z,101286.34
2022-11-29T03:50:02.547Z,101285.47
2022-11-29T03:52:49.928Z,101293.31
2022-11-29T03:55:41.097Z,101293.34
2022-11-29T03:58:28.977Z,101297.75
2022-11-29T04:01:22.480Z,101302.16
2022-11-29T04:04:48.153Z,101294.25
2022-11-29T04:07:33.583Z,101300.34
2022-11-29T04:10:34.797Z,101309.13
2022-11-29T04:13:54.272Z,101310.03
2022-11-29T04:17:14.770Z,101319.69
2022-11-29T04:20:39.145Z,101314.44
2022-11-29T04:23:46.765Z,101319.66
2022-11-29T04:26:38.470Z,101313.53
2022-11-29T04:29:23.914Z,101312.69
2022-11-29T04:32:19.117Z,101320.53
2022-11-29T04:35:33.794Z,101314.38
2022-11-29T04:38:15.441Z,101319.66
2022-11-29T04:41:15.925Z,101318.78
2022-11-29T04:43:57.520Z,101328.34
2022-11-29T04:46:39.905Z,101322.22
2022-11-29T04:49:50.636Z,101330.97
2022-11-29T04:52:30.813Z,101329.94
2022-11-29T04:55:43.056Z,101337.81
2022-11-29T04:58:44.200Z,101329.94
2022-11-29T05:01:38.911Z,101332.66
2022-11-29T05:04:21.486Z,101348.34
2022-11-29T05:07:19.294Z,101347.50
2022-11-29T05:10:29.111Z,101353.66
2022-11-29T05:13:40.912Z,101352.69
2022-11-29T05:16:45.760Z,101361.56
2022-11-29T05:19:36.108Z,101356.31
2022-11-29T05:22:55.991Z,101359.78
2022-11-29T05:25:42.122Z,101366.84
2022-11-29T05:28:31.696Z,101377.31
2022-11-29T05:31:35.059Z,101375.47
2022-11-29T05:34:30.306Z,101385.19
2022-11-29T05:37:15.017Z,101381.63
2022-11-29T05:40:34.710Z,101381.69
2022-11-29T05:43:37.028Z,101393.91
2022-11-29T05:46:28.538Z,101389.59
2022-11-29T05:49:22.341Z,101398.28
2022-11-29T05:52:29.742Z,101400.75
2022-11-29T05:55:44.344Z,101395.53
2022-11-29T05:58:35.469Z,101412.25
2022-11-29T06:01:29.380Z,101407.88
2022-11-29T06:04:17.828Z,101416.66
2022-11-29T06:07:02.708Z,101418.47
2022-11-29T06:09:48.797Z,101419.38
2022-11-29T06:12:24.696Z,101430.75
2022-11-29T06:15:48.504Z,101440.28
2022-11-29T06:19:08.841Z,101438.69
2022-11-29T06:22:09.752Z,101444.00
2022-11-29T06:25:42.707Z,101449.28
2022-11-29T06:28:44.461Z,101451.00
2022-11-29T06:31:39.741Z,101454.53
2022-11-29T06:34:36.827Z,101463.38
2022-11-29T06:37:28.894Z,101471.28
2022-11-29T06:40:02.198Z,101467.78
2022-11-29T06:42:34.825Z,101473.09
2022-11-29T06:45:10.653Z,101475.78
2022-11-29T06:47:53.022Z,101482.81
2022-11-29T06:50:49.913Z,101469.69
2022-11-29T06:53:51.777Z,101480.22
2022-11-29T06:56:49.456Z,101482.00
2022-11-29T06:59:52.732Z,101488.97
2022-11-29T07:02:55.904Z,101495.13
2022-11-29T07:05:31.685Z,101495.13
2022-11-29T07:08:12.748Z,101498.66
2022-11-29T07:10:50.105Z,101489.03
2022-11-29T07:13:23.841Z,101503.06
2022-11-29T07:16:28.484Z,101492.56
2022-11-29T07:19:31.761Z,101497.84
2022-11-29T07:22:37.782Z,101507.44
2022-11-29T07:25:53.110Z,101518.78
2022-11-29T07:29:13.569Z,101522.34
2022-11-29T07:32:17.110Z,101524.19
2022-11-29T07:35:04.285Z,101523.44
2022-11-29T07:38:06.449Z,101531.31
2022-11-29T07:41:40.717Z,101532.19
2022-11-29T07:44:30.710Z,101543.56
2022-11-29T07:47:03.341Z,101546.22
2022-11-29T07:49:36.105Z,101553.25
2022-11-29T07:52:14.738Z,101548.00
2022-11-29T07:54:47.845Z,101548.00
2022-11-29T07:57:20.783Z,101533.09
2022-11-29T07:59:53.440Z,101549.72
2022-11-29T08:02:31.333Z,101542.78
2022-11-29T08:05:04.590Z,101544.47
2022-11-29T08:07:39.765Z,101550.72
2022-11-29T08:10:16.883Z,101550.75
2022-11-29T08:12:51.766Z,101554.31
2022-11-29T08:15:25.950Z,101550.81
2022-11-29T08:17:58.657Z,101557.84
2022-11-29T08:20:31.382Z,101560.47
2022-11-29T08:23:04.098Z,101557.78
2022-11-29T08:25:37.002Z,101554.38
2022-11-29T08:28:10.178Z,101566.66
2022-11-29T08:30:42.870Z,101562.19
2022-11-29T08:33:15.484Z,101563.13
2022-11-29T08:35:48.198Z,101565.63
2022-11-29T08:38:20.785Z,101575.25
2022-11-29T08:40:53.557Z,101568.25
2022-11-29T08:43:26.202Z,101571.78
2022-11-29T08:45:59.347Z,101575.41
2022-11-29T08:48:32.169Z,101575.47
2022-11-29T08:51:06.480Z,101579.88
2022-11-29T08:53:42.052Z,101580.78
2022-11-29T08:59:13.616Z,101584.38
2022-11-29T09:01:46.340Z,101592.19
2022-11-29T09:04:19.032Z,101587.81
2022-11-29T09:06:51.862Z,101586.09
2022-11-29T09:09:24.614Z,101587.06
2022-11-29T09:11:57.306Z,101592.31
2022-11-29T09:14:30.919Z,101587.88
2022-11-29T09:17:03.708Z,101593.16
2022-11-29T09:19:36.547Z,101595.84
2022-11-29T09:22:09.500Z,101596.69
2022-11-29T09:24:45.422Z,101596.75
2022-11-29T09:27:18.240Z,101608.94
2022-11-29T09:29:51.151Z,101614.28
2022-11-29T09:32:24.002Z,101617.69
2022-11-29T09:34:56.663Z,101621.25
2022-11-29T09:37:29.459Z,101624.81
2022-11-29T09:40:02.232Z,101622.16
2022-11-29T09:43:04.785Z,101638.00
2022-11-29T09:45:45.422Z,101632.81
2022-11-29T09:49:03.166Z,101630.97
2022-11-29T09:51:55.339Z,101633.75
2022-11-29T09:55:10.143Z,101637.16
2022-11-29T09:57:50.547Z,101638.03
2022-11-29T10:00:23.429Z,101640.69
2022-11-29T10:03:16.987Z,101649.22
2022-11-29T10:05:57.692Z,101649.50
2022-11-29T10:08:43.198Z,101645.94
2022-11-29T10:11:56.508Z,101646.81
2022-11-29T10:14:56.231Z,101645.94
2022-11-29T10:17:44.448Z,101640.59
2022-11-29T10:20:25.567Z,101648.44
2022-11-29T10:23:16.089Z,101647.59
2022-11-29T10:25:52.916Z,101643.38
2022-11-29T10:28:32.027Z,101638.19
2022-11-29T10:31:33.239Z,101644.16
2022-11-29T10:34:30.953Z,101635.59
2022-11-29T10:37:04.407Z,101636.47
2022-11-29T10:39:47.834Z,101636.38
2022-11-29T10:42:43.410Z,101638.06
2022-11-29T10:45:19.342Z,101637.28
2022-11-29T10:47:56.625Z,101639.84
2022-11-29T10:50:34.406Z,101643.31
2022-11-29T10:53:13.645Z,101645.13
2022-11-29T10:55:55.270Z,101649.50
2022-11-29T10:58:30.817Z,101640.63
2022-11-29T11:01:08.815Z,101648.66
2022-11-29T11:03:54.079Z,101644.09
2022-11-29T11:06:42.146Z,101645.88
2022-11-29T11:10:04.214Z,101657.97
2022-11-29T11:12:46.586Z,101645.66
2022-11-29T11:15:32.050Z,101642.34
2022-11-29T11:18:18.864Z,101642.31
2022-11-29T11:20:57.161Z,101650.97
2022-11-29T11:23:42.372Z,101655.47
2022-11-29T11:26:15.464Z,101651.16
2022-11-29T11:28:59.491Z,101652.91
2022-11-29T11:31:37.909Z,101652.97
2022-11-29T11:34:26.205Z,101658.13
2022-11-29T11:37:29.290Z,101664.31
2022-11-29T11:40:29.226Z,101661.59
2022-11-29T11:43:03.225Z,101665.06
2022-11-29T11:45:38.653Z,101663.22
2022-11-29T11:48:16.540Z,101666.06
2022-11-29T11:50:58.238Z,101667.13
2022-11-29T11:53:37.629Z,101670.59
2022-11-29T11:56:14.435Z,101678.38
2022-11-29T11:58:57.136Z,101678.44
2022-11-29T12:01:39.545Z,101673.28
2022-11-29T12:04:35.565Z,101685.28
2022-11-29T12:07:59.740Z,101681.19
2022-11-29T12:10:30.373Z,101694.50
2022-11-29T12:13:04.606Z,101703.25
2022-11-29T12:15:44.129Z,101699.66
2022-11-29T12:18:50.095Z,101706.63
2022-11-29T12:21:31.876Z,101695.94
2022-11-29T12:24:27.555Z,101699.66
2022-11-29T12:27:05.413Z,101693.53
2022-11-29T12:29:38.334Z,101692.69
2022-11-29T12:32:17.051Z,101706.59
2022-11-29T12:34:58.629Z,101712.03
2022-11-29T12:37:56.261Z,101720.16
2022-11-29T12:41:18.350Z,101720.09
2022-11-29T12:44:12.845Z,101718.38
2022-11-29T12:50:18.459Z,101731.53
2022-11-29T12:53:16.280Z,101730.66
2022-11-29T12:56:16.258Z,101724.50
2022-11-29T12:59:29.354Z,101725.44
2022-11-29T13:02:34.370Z,101729.81
2022-11-29T13:05:27.919Z,101727.16
2022-11-29T13:08:38.130Z,101728.81
2022-11-29T13:11:34.436Z,101725.25
2022-11-29T13:14:44.025Z,101727.00
2022-11-29T13:17:48.291Z,101724.44
2022-11-29T13:20:42.749Z,101725.88
2022-11-29T13:24:07.974Z,101734.03
2022-11-29T13:26:41.939Z,101733.09
2022-11-29T13:29:18.282Z,101740.31
2022-11-29T13:31:52.058Z,101735.91
2022-11-29T13:34:39.428Z,101738.53
2022-11-29T13:38:16.463Z,101742.88
2022-11-29T13:41:03.651Z,101742.88
2022-11-29T13:43:54.344Z,101744.50
2022-11-29T13:46:43.556Z,101751.69
2022-11-29T13:49:52.991Z,101746.41
2022-11-29T13:52:43.921Z,101748.25
2022-11-29T13:55:29.030Z,101750.84
2022-11-29T13:58:30.888Z,101751.66
2022-11-29T14:01:11.594Z,101746.47
2022-11-29T14:04:05.525Z,101745.63
2022-11-29T14:06:39.278Z,101751.69
2022-11-29T14:09:32.135Z,101748.28
2022-11-29T14:12:21.898Z,101757.91
2022-11-29T14:15:02.791Z,101749.91
2022-11-29T14:17:59.447Z,101750.94
2022-11-29T14:20:32.447Z,101751.78
2022-11-29T14:23:05.009Z,101751.78
2022-11-29T14:25:56.386Z,101753.53
2022-11-29T14:28:38.753Z,101756.13
2022-11-29T14:31:11.646Z,101761.41
2022-11-29T14:33:47.475Z,101765.75
2022-11-29T14:36:54.377Z,101761.44
2022-11-29T14:39:41.292Z,101763.22
2022-11-29T14:42:21.891Z,101764.13
2022-11-29T14:45:06.304Z,101767.59
2022-11-29T14:47:49.233Z,101773.78
2022-11-29T14:50:40.194Z,101775.59
2022-11-29T14:53:35.645Z,101773.84
2022-11-29T14:56:34.760Z,101774.69
2022-11-29T14:59:45.065Z,101774.66
2022-11-29T15:02:34.830Z,101766.72
2022-11-29T15:05:34.920Z,101769.41
2022-11-29T15:08:17.429Z,101773.81
2022-11-29T15:11:22.790Z,101780.00
2022-11-29T15:14:07.537Z,101775.63
2022-11-29T15:17:24.955Z,101779.16
2022-11-29T15:20:17.443Z,101777.41
2022-11-29T15:22:58.300Z,101774.69
2022-11-29T15:25:33.484Z,101781.78
2022-11-29T15:28:06.403Z,101778.28
2022-11-29T15:30:42.450Z,101771.25
2022-11-29T15:33:25.657Z,101781.81
2022-11-29T15:36:06.410Z,101787.09
2022-11-29T15:38:49.110Z,101787.97
2022-11-29T15:41:35.621Z,101792.38
2022-11-29T15:44:23.191Z,101788.84
2022-11-29T15:46:55.979Z,101788.84
2022-11-29T15:49:30.597Z,101794.06
2022-11-29T15:52:20.242Z,101797.59
2022-11-29T15:55:05.582Z,101780.91
2022-11-29T15:57:53.315Z,101788.81
2022-11-29T16:00:28.306Z,101803.75
2022-11-29T16:03:04.509Z,101801.00
2022-11-29T16:05:39.401Z,101793.16
2022-11-29T16:08:20.954Z,101790.56
2022-11-29T16:10:54.642Z,101794.06
2022-11-29T16:13:41.857Z,101803.75
2022-11-29T16:16:20.806Z,101799.31
2022-11-29T16:18:54.522Z,101803.75
2022-11-29T16:21:31.397Z,101798.44
2022-11-29T16:24:34.278Z,101808.69
2022-11-29T16:27:08.366Z,101806.28
2022-11-29T16:29:46.708Z,101801.03
2022-11-29T16:32:35.761Z,101798.41
2022-11-29T16:35:20.834Z,101799.34
2022-11-29T16:37:54.261Z,101807.22
2022-11-29T16:40:30.628Z,101812.47
2022-11-29T16:43:03.391Z,101813.41
2022-11-29T16:45:41.965Z,101817.81
2022-11-29T16:48:25.526Z,101822.97
2022-11-29T16:51:23.928Z,101823.09
2022-11-29T16:54:23.749Z,101823.06
2022-11-29T16:57:28.373Z,101824.84
2022-11-29T17:00:05.793Z,101824.84
2022-11-29T17:02:51.688Z,101817.81
2022-11-29T17:05:24.912Z,101819.53
2022-11-29T17:07:57.972Z,101822.22
2022-11-29T17:10:31.206Z,101831.66
2022-11-29T17:13:04.797Z,101825.59
2022-11-29T17:15:37.676Z,101823.06
2022-11-29T17:18:10.501Z,101829.25
2022-11-29T17:20:43.504Z,101831.81
2022-11-29T17:23:16.149Z,101837.09
2022-11-29T17:26:02.698Z,101834.47
2022-11-29T17:28:35.379Z,101830.06
2022-11-29T17:31:14.508Z,101833.63
2022-11-29T17:33:47.885Z,101835.47
2022-11-29T17:36:21.744Z,101835.44
2022-11-29T17:38:54.383Z,101842.50
2022-11-29T17:41:28.400Z,101845.16
2022-11-29T17:44:02.159Z,101840.72
2022-11-29T17:46:37.064Z,101838.06
2022-11-29T17:49:10.894Z,101843.38
2022-11-29T17:51:51.611Z,101847.66
2022-11-29T17:54:24.795Z,101846.91
2022-11-29T17:56:57.392Z,101852.13
2022-11-29T17:59:30.499Z,101850.31
2022-11-29T18:02:04.007Z,101840.66
2022-11-29T18:04:37.645Z,101848.53
2022-11-29T18:07:10.501Z,101849.38
2022-11-29T18:09:44.281Z,101858.19
2022-11-29T18:12:17.730Z,101857.31
2022-11-29T18:14:51.018Z,101858.13
2022-11-29T18:17:23.763Z,101868.69
2022-11-29T18:19:56.449Z,101867.84
2022-11-29T18:22:29.209Z,101870.47
2022-11-29T18:25:30.638Z,101867.72
2022-11-29T18:27:57.386Z,101868.59
2022-11-29T18:30:30.208Z,101876.47
2022-11-29T18:33:02.997Z,101866.84
2022-11-29T18:35:35.943Z,101863.31
2022-11-29T18:38:16.534Z,101871.19
2022-11-29T18:40:49.584Z,101872.88
2022-11-29T18:43:22.379Z,101868.38
2022-11-29T18:45:55.431Z,101874.56
2022-11-29T18:48:30.355Z,101878.09
2022-11-29T18:51:06.261Z,101876.25
2022-11-29T18:53:40.714Z,101884.81
2022-11-29T18:56:22.830Z,101888.44
2022-11-29T18:59:01.852Z,101892.84
2022-11-29T19:01:41.401Z,101892.03
2022-11-29T19:04:19.984Z,101891.41
2022-11-29T19:06:52.815Z,101901.91
2022-11-29T19:09:25.777Z,101894.00
2022-11-29T19:11:58.574Z,101895.59
2022-11-29T19:14:32.463Z,101894.78
2022-11-29T19:17:05.322Z,101901.84
2022-11-29T19:19:38.455Z,101899.38
2022-11-29T19:22:11.417Z,101905.50
2022-11-29T19:24:44.675Z,101905.53
2022-11-29T19:27:17.704Z,101901.16
2022-11-29T19:29:51.133Z,101911.69
2022-11-29T19:32:24.219Z,101909.81
2022-11-29T19:34:57.765Z,101900.19
2022-11-29T19:37:31.039Z,101900.16
2022-11-29T19:40:05.037Z,101908.75
2022-11-29T19:42:38.137Z,101917.44
2022-11-29T19:45:18.885Z,101915.00
2022-11-29T19:47:53.204Z,101909.56
2022-11-29T19:50:26.345Z,101913.22
2022-11-29T19:52:59.878Z,101908.66
2022-11-29T19:55:34.092Z,101916.75
2022-11-29T19:58:07.286Z,101909.56
2022-11-29T20:00:40.201Z,101909.81
2022-11-29T20:03:13.429Z,101910.09
2022-11-29T20:05:55.729Z,101908.59
2022-11-29T20:08:30.248Z,101917.38
2022-11-29T20:11:11.167Z,101920.78
2022-11-29T20:13:46.921Z,101920.06
2022-11-29T20:16:20.332Z,101914.81
2022-11-29T20:18:53.937Z,101929.66
2022-11-29T20:21:31.208Z,101919.88
2022-11-29T20:24:07.978Z,101925.16
2022-11-29T20:26:43.620Z,101935.94
2022-11-29T20:29:17.899Z,101933.28
2022-11-29T20:31:51.545Z,101927.16
2022-11-29T20:34:24.806Z,101931.41
2022-11-29T20:37:30.248Z,101928.72
2022-11-29T20:40:16.809Z,101937.28
2022-11-29T20:43:15.774Z,101940.00
2022-11-29T20:45:49.242Z,101940.91
2022-11-29T20:48:23.495Z,101949.66
2022-11-29T20:51:02.517Z,101943.53
2022-11-29T20:53:43.111Z,101943.63
2022-11-29T20:56:16.156Z,101951.38
2022-11-29T20:58:49.390Z,101946.09
2022-11-29T21:01:22.311Z,101955.56
2022-11-29T21:03:55.334Z,101950.53
2022-11-29T21:06:28.136Z,101947.00
2022-11-29T21:09:00.912Z,101966.97
2022-11-29T21:11:33.901Z,101953.84
2022-11-29T21:14:09.349Z,101956.72
2022-11-29T21:16:42.604Z,101957.56
2022-11-29T21:19:22.677Z,101949.47
2022-11-29T21:22:22.479Z,101953.31
2022-11-29T21:25:24.968Z,101958.25
2022-11-29T21:27:58.225Z,101961.06
2022-11-29T21:30:31.270Z,101955.16
2022-11-29T21:33:04.756Z,101950.41
2022-11-29T21:35:40.100Z,101949.59
2022-11-29T21:38:20.720Z,101958.50
2022-11-29T21:40:53.483Z,101950.69
2022-11-29T21:43:58.023Z,101947.28
2022-11-29T21:46:19.052Z,101953.00
2022-11-29T21:48:52.969Z,101956.78
2022-11-29T21:51:25.612Z,101954.16
2022-11-29T21:53:58.152Z,101961.09
2022-11-29T21:56:30.718Z,101959.34
2022-11-29T21:59:03.696Z,101951.66
2022-11-29T22:01:36.658Z,101953.47
2022-11-29T22:04:09.541Z,101959.41
2022-11-29T22:06:42.286Z,101949.06
2022-11-29T22:09:18.110Z,101951.75
2022-11-29T22:11:50.967Z,101967.53
2022-11-29T22:14:24.486Z,101958.78
2022-11-29T22:17:00.643Z,101962.13
2022-11-29T22:19:35.210Z,101958.75
2022-11-29T22:22:10.817Z,101960.59
2022-11-29T22:24:43.743Z,101957.00
2022-11-29T22:27:18.537Z,101960.56
2022-11-29T22:29:51.216Z,101950.97
2022-11-29T22:32:23.937Z,101957.78
2022-11-29T22:34:56.598Z,101949.00
2022-11-29T22:37:29.284Z,101955.91
2022-11-29T22:40:01.794Z,101953.28
2022-11-29T22:42:34.426Z,101948.94
2022-11-29T22:45:08.214Z,101959.53
2022-11-29T22:47:41.021Z,101957.06
2022-11-29T22:50:14.038Z,101957.06
2022-11-29T22:52:46.763Z,101956.94
2022-11-29T22:55:19.529Z,101967.53
2022-11-29T22:57:53.824Z,101968.41
2022-11-29T23:00:26.565Z,101967.59
2022-11-29T23:02:59.312Z,101982.31
2022-11-29T23:05:33.126Z,101978.09
2022-11-29T23:08:05.973Z,101974.41
2022-11-29T23:10:38.773Z,101972.56
2022-11-29T23:13:11.405Z,101975.47
2022-11-29T23:15:44.068Z,101973.41
2022-11-29T23:18:16.689Z,101975.22
2022-11-29T23:20:49.802Z,101976.81
2022-11-29T23:23:22.474Z,101977.06
2022-11-29T23:25:55.254Z,101980.63
2022-11-29T23:28:29.206Z,101977.91
2022-11-29T23:31:02.334Z,101982.22
2022-11-29T23:33:35.370Z,101981.66
2022-11-29T23:36:10.351Z,101979.06
2022-11-29T23:38:43.583Z,101982.34
2022-11-29T23:41:17.588Z,101987.50
2022-11-29T23:43:50.693Z,101980.34
2022-11-29T23:46:24.795Z,101978.69
2022-11-29T23:48:57.719Z,101977.78
2022-11-29T23:51:31.005Z,101983.84
2022-11-29T23:54:05.626Z,101980.59
2022-11-29T23:56:38.494Z,101978.63
2022-11-29T23:59:11.678Z,101972.56
